createdAt,value
2022-08-19T00:01:45.173Z,69.33
2022-08-19T00:04:34.497Z,70.32
2022-08-19T00:07:01.456Z,69.89
2022-08-19T00:09:30.652Z,68.53
2022-08-19T00:11:58.173Z,69.13
2022-08-19T00:14:27.778Z,69.38
2022-08-19T00:17:08.365Z,70.18
2022-08-19T00:19:35.581Z,72.90
2022-08-19T00:22:03.051Z,72.49
2022-08-19T00:24:35.864Z,73.09
2022-08-19T00:27:25.245Z,72.42
2022-08-19T00:29:52.571Z,70.71
2022-08-19T00:32:20.822Z,71.92
2022-08-19T00:34:47.570Z,70.51
2022-08-19T00:37:14.344Z,69.29
2022-08-19T00:39:42.204Z,70.24
2022-08-19T00:42:08.993Z,72.19
2022-08-19T00:44:35.976Z,71.84
2022-08-19T00:47:07.101Z,71.04
2022-08-19T00:49:51.763Z,70.82
2022-08-19T00:52:25.536Z,73.00
2022-08-19T00:55:00.784Z,72.89
2022-08-19T00:57:32.914Z,72.54
2022-08-19T01:00:05.435Z,72.63
2022-08-19T01:02:37.968Z,73.50
2022-08-19T01:05:08.702Z,73.07
2022-08-19T01:07:38.027Z,74.12
2022-08-19T01:10:12.966Z,75.29
2022-08-19T01:12:39.744Z,73.77
2022-08-19T01:15:11.863Z,75.33
2022-08-19T01:17:42.975Z,76.25
2022-08-19T01:20:12.226Z,76.34
2022-08-19T01:23:07.921Z,74.07
2022-08-19T01:25:50.401Z,73.58
2022-08-19T01:28:19.502Z,73.49
2022-08-19T01:31:07.958Z,75.35
2022-08-19T01:33:39.699Z,74.34
2022-08-19T01:36:13.345Z,74.22
2022-08-19T01:38:45.005Z,74.93
2022-08-19T01:41:13.057Z,75.32
2022-08-19T01:44:13.266Z,75.23
2022-08-19T01:46:29.163Z,74.36
2022-08-19T01:48:56.286Z,73.75
2022-08-19T01:51:24.062Z,75.67
2022-08-19T01:53:51.652Z,74.93
2022-08-19T01:56:19.262Z,73.92
2022-08-19T01:58:52.255Z,74.18
2022-08-19T02:01:19.378Z,74.01
2022-08-19T02:03:46.409Z,74.36
2022-08-19T02:06:16.047Z,74.24
2022-08-19T02:08:43.287Z,74.70
2022-08-19T02:11:29.742Z,75.23
2022-08-19T02:14:01.689Z,75.28
2022-08-19T02:16:31.117Z,74.40
2022-08-19T02:19:02.172Z,75.41
2022-08-19T02:21:30.260Z,75.46
2022-08-19T02:23:57.442Z,76.12
2022-08-19T02:26:24.313Z,75.96
2022-08-19T02:28:57.270Z,76.59
2022-08-19T02:31:29.006Z,76.46
2022-08-19T02:33:57.009Z,76.92
2022-08-19T02:36:31.418Z,76.61
2022-08-19T02:39:01.355Z,76.05
2022-08-19T02:41:35.253Z,78.19
2022-08-19T02:44:30.018Z,77.09
2022-08-19T02:46:54.073Z,76.92
2022-08-19T02:49:20.976Z,77.78
2022-08-19T02:51:55.568Z,78.34
2022-08-19T02:54:22.361Z,79.11
2022-08-19T02:56:52.584Z,78.24
2022-08-19T02:59:22.982Z,78.72
2022-08-19T03:01:55.121Z,78.54
2022-08-19T03:04:25.141Z,82.35
2022-08-19T03:06:52.231Z,79.58
2022-08-19T03:09:20.183Z,79.59
2022-08-19T03:11:52.701Z,79.73
2022-08-19T03:14:19.826Z,80.18
2022-08-19T03:16:48.205Z,78.76
2022-08-19T03:19:21.652Z,77.93
2022-08-19T03:21:48.615Z,79.94
2022-08-19T03:24:19.166Z,79.69
2022-08-19T03:26:53.698Z,78.25
2022-08-19T03:29:30.400Z,78.78
2022-08-19T03:32:05.057Z,78.73
2022-08-19T03:34:33.727Z,79.11
2022-08-19T03:37:04.230Z,79.99
2022-08-19T03:39:32.507Z,79.03
2022-08-19T03:42:31.916Z,79.45
2022-08-19T03:44:50.100Z,79.36
2022-08-19T03:47:21.030Z,79.43
2022-08-19T03:49:52.908Z,79.22
2022-08-19T03:52:25.206Z,78.25
2022-08-19T03:54:52.271Z,78.55
2022-08-19T03:57:19.019Z,77.88
2022-08-19T03:59:45.733Z,78.38
2022-08-19T04:02:12.846Z,78.82
2022-08-19T04:04:48.348Z,77.82
2022-08-19T04:07:18.677Z,77.92
2022-08-19T04:09:47.495Z,79.05
2022-08-19T04:12:17.465Z,79.24
2022-08-19T04:14:47.024Z,78.42
2022-08-19T04:17:14.635Z,78.20
2022-08-19T04:19:43.738Z,78.23
2022-08-19T04:22:12.884Z,77.33
2022-08-19T04:24:42.027Z,77.43
2022-08-19T04:27:12.374Z,77.24
2022-08-19T04:29:42.099Z,76.85
2022-08-19T04:32:10.116Z,77.14
2022-08-19T04:34:37.451Z,76.57
2022-08-19T04:37:27.059Z,76.72
2022-08-19T04:40:14.537Z,76.84
2022-08-19T04:42:41.303Z,76.94
2022-08-19T04:45:13.600Z,77.09
2022-08-19T04:47:58.744Z,77.48
2022-08-19T04:50:42.020Z,76.24
2022-08-19T04:53:16.369Z,75.88
2022-08-19T04:55:44.495Z,75.95
2022-08-19T04:58:11.271Z,76.22
2022-08-19T05:00:41.790Z,75.97
2022-08-19T05:03:09.017Z,75.08
2022-08-19T05:05:45.536Z,75.54
2022-08-19T05:08:30.717Z,74.88
2022-08-19T05:11:08.876Z,74.38
2022-08-19T05:13:35.876Z,74.05
2022-08-19T05:16:02.704Z,73.16
2022-08-19T05:18:47.768Z,72.65
2022-08-19T05:21:35.550Z,72.41
2022-08-19T05:24:09.547Z,71.91
2022-08-19T05:26:42.066Z,71.18
2022-08-19T05:29:09.449Z,70.68
2022-08-19T05:31:41.928Z,70.17
2022-08-19T05:34:20.307Z,69.64
2022-08-19T05:36:48.238Z,69.16
2022-08-19T05:39:18.763Z,68.59
2022-08-19T05:41:47.852Z,68.15
2022-08-19T05:44:15.578Z,67.96
2022-08-19T05:46:47.374Z,67.72
2022-08-19T05:49:16.253Z,67.20
2022-08-19T05:51:43.497Z,67.94
2022-08-19T05:54:13.969Z,65.42
2022-08-19T05:56:46.210Z,64.38
2022-08-19T05:59:25.352Z,62.99
2022-08-19T06:02:19.781Z,61.81
2022-08-19T06:04:51.127Z,62.57
2022-08-19T06:07:17.992Z,58.05
2022-08-19T06:09:54.448Z,56.33
2022-08-19T06:12:34.644Z,57.22
2022-08-19T06:15:05.381Z,55.18
2022-08-19T06:17:35.757Z,57.34
2022-08-19T06:20:12.425Z,55.20
2022-08-19T06:22:45.029Z,56.97
2022-08-19T06:25:17.590Z,50.85
2022-08-19T06:30:31.927Z,53.72
2022-08-19T06:33:02.908Z,50.79
2022-08-19T06:35:33.228Z,50.06
2022-08-19T06:38:02.633Z,47.19
2022-08-19T06:40:30.596Z,46.08
2022-08-19T06:43:02.520Z,46.52
2022-08-19T06:45:41.105Z,45.44
2022-08-19T06:48:10.130Z,41.91
2022-08-19T06:50:41.122Z,44.39
2022-08-19T06:53:08.214Z,47.15
2022-08-19T06:55:38.310Z,43.37
2022-08-19T06:58:06.707Z,40.33
2022-08-19T07:00:34.213Z,39.31
2022-08-19T07:03:09.069Z,41.27
2022-08-19T07:05:47.240Z,38.85
2022-08-19T07:08:22.799Z,37.30
2022-08-19T07:10:59.411Z,38.46
2022-08-19T07:13:36.039Z,39.72
2022-08-19T07:16:06.335Z,38.28
2022-08-19T07:18:36.599Z,35.52
2022-08-19T07:21:09.465Z,34.87
2022-08-19T07:23:40.700Z,34.17
2022-08-19T07:26:08.741Z,34.64
2022-08-19T07:28:39.681Z,35.09
2022-08-19T07:31:23.075Z,35.70
2022-08-19T07:33:54.793Z,33.25
2022-08-19T07:36:25.322Z,32.12
2022-08-19T07:39:01.631Z,31.99
2022-08-19T07:41:31.228Z,30.99
2022-08-19T07:44:04.164Z,30.89
2022-08-19T07:46:39.305Z,29.83
2022-08-19T07:49:07.979Z,30.02
2022-08-19T07:51:36.491Z,29.32
2022-08-19T07:54:05.304Z,30.15
2022-08-19T07:56:32.196Z,29.34
2022-08-19T07:59:00.460Z,28.39
2022-08-19T08:01:28.381Z,30.83
2022-08-19T08:04:16.622Z,28.32
2022-08-19T08:07:05.599Z,28.70
2022-08-19T08:09:40.080Z,27.64
2022-08-19T08:15:12.633Z,27.82
2022-08-19T08:17:49.579Z,26.65
2022-08-19T08:20:20.374Z,26.50
2022-08-19T08:23:10.226Z,26.11
2022-08-19T08:25:39.471Z,26.55
2022-08-19T08:28:08.290Z,25.63
2022-08-19T08:30:42.027Z,26.26
2022-08-19T08:33:13.752Z,25.75
2022-08-19T08:35:44.935Z,27.21
2022-08-19T08:38:12.484Z,25.36
2022-08-19T08:40:50.323Z,27.02
2022-08-19T08:43:33.075Z,26.59
2022-08-19T08:46:06.411Z,25.63
2022-08-19T08:48:38.512Z,24.85
2022-08-19T08:51:33.069Z,24.54
2022-08-19T08:54:05.544Z,24.27
2022-08-19T08:56:35.814Z,24.67
2022-08-19T08:59:09.025Z,25.15
2022-08-19T09:01:38.809Z,24.63
2022-08-19T09:04:07.687Z,24.67
2022-08-19T09:06:41.063Z,24.83
2022-08-19T09:09:14.894Z,23.93
2022-08-19T09:11:51.081Z,24.25
2022-08-19T09:14:50.291Z,22.97
2022-08-19T09:17:20.359Z,22.79
2022-08-19T09:19:49.806Z,24.37
2022-08-19T09:22:25.369Z,24.18
2022-08-19T09:24:56.558Z,24.85
2022-08-19T09:27:41.955Z,24.65
2022-08-19T09:30:15.796Z,24.90
2022-08-19T09:32:46.150Z,25.73
2022-08-19T09:35:15.177Z,25.39
2022-08-19T09:37:49.811Z,25.23
2022-08-19T09:40:26.244Z,24.59
2022-08-19T09:43:01.708Z,25.05
2022-08-19T09:45:29.937Z,25.61
2022-08-19T09:47:57.171Z,26.18
2022-08-19T09:50:24.390Z,26.90
2022-08-19T09:52:58.616Z,26.14
2022-08-19T09:55:31.280Z,26.09
2022-08-19T09:58:03.149Z,26.42
2022-08-19T10:00:34.446Z,26.36
2022-08-19T10:03:01.263Z,26.26
2022-08-19T10:05:48.621Z,26.32
2022-08-19T10:08:18.733Z,26.90
2022-08-19T10:11:27.364Z,25.42
2022-08-19T10:13:46.657Z,25.34
2022-08-19T10:16:19.295Z,24.83
2022-08-19T10:18:53.037Z,25.14
2022-08-19T10:21:27.783Z,25.61
2022-08-19T10:24:00.722Z,26.30
2022-08-19T10:26:30.028Z,25.62
2022-08-19T10:29:00.518Z,26.29
2022-08-19T10:31:59.723Z,26.29
2022-08-19T10:34:27.672Z,26.71
2022-08-19T10:37:01.028Z,27.77
2022-08-19T10:39:30.738Z,27.83
2022-08-19T10:42:01.259Z,27.36
2022-08-19T10:44:32.211Z,27.16
2022-08-19T10:47:17.621Z,27.47
2022-08-19T10:50:11.736Z,27.69
2022-08-19T10:52:49.801Z,28.25
2022-08-19T10:55:42.746Z,27.63
2022-08-19T10:58:14.576Z,27.89
2022-08-19T11:00:49.578Z,27.47
2022-08-19T11:03:17.491Z,26.74
2022-08-19T11:05:53.410Z,26.74
2022-08-19T11:08:24.152Z,26.29
2022-08-19T11:10:58.035Z,24.36
2022-08-19T11:13:25.580Z,23.75
2022-08-19T11:16:07.851Z,23.99
2022-08-19T11:18:39.010Z,23.61
2022-08-19T11:21:09.060Z,22.79
2022-08-19T11:23:35.913Z,22.82
2022-08-19T11:26:05.537Z,24.99
2022-08-19T11:28:42.030Z,24.27
2022-08-19T11:31:18.735Z,24.50
2022-08-19T11:33:57.416Z,24.97
2022-08-19T11:36:24.487Z,24.64
2022-08-19T11:38:51.745Z,24.36
2022-08-19T11:41:19.770Z,25.33
2022-08-19T11:43:46.907Z,25.24
2022-08-19T11:46:14.842Z,24.77
2022-08-19T11:48:41.786Z,25.03
2022-08-19T11:51:12.519Z,24.32
2022-08-19T11:53:43.560Z,24.71
2022-08-19T11:56:10.883Z,24.83
2022-08-19T11:58:38.160Z,24.33
2022-08-19T12:01:09.297Z,24.67
2022-08-19T12:03:38.386Z,24.55
2022-08-19T12:06:06.153Z,24.41
2022-08-19T12:08:33.255Z,25.05
2022-08-19T12:11:01.946Z,25.12
2022-08-19T12:13:30.830Z,25.26
2022-08-19T12:15:59.916Z,24.90
2022-08-19T12:18:27.336Z,25.25
2022-08-19T12:20:59.514Z,25.09
2022-08-19T12:23:26.460Z,25.11
2022-08-19T12:25:55.216Z,25.71
2022-08-19T12:28:23.534Z,25.28
2022-08-19T12:30:51.969Z,25.55
2022-08-19T12:33:33.177Z,25.51
2022-08-19T12:36:04.534Z,25.83
2022-08-19T12:38:32.700Z,25.62
2022-08-19T12:41:00.600Z,25.79
2022-08-19T12:43:27.844Z,26.23
2022-08-19T12:45:55.284Z,26.61
2022-08-19T12:48:34.419Z,26.14
2022-08-19T12:51:11.905Z,26.19
2022-08-19T12:53:39.591Z,25.50
2022-08-19T12:56:15.123Z,25.26
2022-08-19T12:58:42.646Z,25.57
2022-08-19T13:01:25.323Z,25.67
2022-08-19T13:03:53.217Z,25.41
2022-08-19T13:06:24.576Z,26.36
2022-08-19T13:08:57.723Z,27.03
2022-08-19T13:11:35.325Z,27.05
2022-08-19T13:14:27.485Z,27.08
2022-08-19T13:16:59.198Z,27.29
2022-08-19T13:19:27.052Z,27.39
2022-08-19T13:21:57.763Z,27.19
2022-08-19T13:24:34.066Z,27.17
2022-08-19T13:27:01.531Z,26.91
2022-08-19T13:29:50.562Z,26.40
2022-08-19T13:32:45.949Z,26.54
2022-08-19T13:35:17.733Z,26.46
2022-08-19T13:37:45.198Z,25.73
2022-08-19T13:40:20.196Z,26.02
2022-08-19T13:42:52.573Z,26.21
2022-08-19T13:45:24.813Z,25.61
2022-08-19T13:47:57.024Z,25.53
2022-08-19T13:50:32.026Z,25.93
2022-08-19T13:53:00.248Z,26.07
2022-08-19T13:55:27.481Z,25.25
2022-08-19T13:57:59.714Z,25.41
2022-08-19T14:00:35.150Z,25.57
2022-08-19T14:03:04.342Z,25.54
2022-08-19T14:05:39.205Z,25.58
2022-08-19T14:08:06.078Z,25.91
2022-08-19T14:10:37.914Z,26.19
2022-08-19T14:13:08.865Z,26.02
2022-08-19T14:15:45.012Z,26.60
2022-08-19T14:18:11.901Z,26.07
2022-08-19T14:20:42.984Z,26.38
2022-08-19T14:23:10.178Z,25.95
2022-08-19T14:25:40.789Z,26.05
2022-08-19T14:28:28.928Z,26.33
2022-08-19T14:31:02.827Z,26.51
2022-08-19T14:33:32.598Z,26.05
2022-08-19T14:36:01.076Z,26.28
2022-08-19T14:38:33.166Z,26.54
2022-08-19T14:41:14.055Z,27.19
2022-08-19T14:43:41.129Z,27.16
2022-08-19T14:46:10.953Z,27.07
2022-08-19T14:48:41.943Z,27.14
2022-08-19T14:51:09.246Z,27.00
2022-08-19T14:53:37.591Z,27.00
2022-08-19T14:56:14.571Z,27.32
2022-08-19T14:58:42.447Z,27.62
2022-08-19T15:01:13.948Z,27.56
2022-08-19T15:03:41.713Z,27.62
2022-08-19T15:06:12.634Z,27.30
2022-08-19T15:08:44.627Z,27.70
2022-08-19T15:11:23.491Z,27.62
2022-08-19T15:13:54.538Z,27.90
2022-08-19T15:16:23.166Z,28.02
2022-08-19T15:18:50.839Z,28.23
2022-08-19T15:21:26.879Z,27.76
2022-08-19T15:24:02.910Z,27.48
2022-08-19T15:26:32.739Z,28.20
2022-08-19T15:29:11.727Z,28.81
2022-08-19T15:31:39.724Z,28.71
2022-08-19T15:34:19.778Z,28.09
2022-08-19T15:36:54.274Z,27.94
2022-08-19T15:39:21.299Z,27.94
2022-08-19T15:41:50.268Z,28.27
2022-08-19T15:44:22.826Z,28.19
2022-08-19T15:46:52.723Z,28.58
2022-08-19T15:49:25.277Z,28.65
2022-08-19T15:51:57.539Z,28.55
2022-08-19T15:54:24.592Z,28.65
2022-08-19T15:57:15.133Z,28.74
2022-08-19T16:00:03.404Z,29.10
2022-08-19T16:02:53.613Z,29.19
2022-08-19T16:05:43.514Z,29.38
2022-08-19T16:08:14.718Z,29.48
2022-08-19T16:10:42.611Z,29.80
2022-08-19T16:13:11.982Z,29.87
2022-08-19T16:15:45.377Z,30.07
2022-08-19T16:18:17.389Z,29.98
2022-08-19T16:20:47.379Z,30.33
2022-08-19T16:23:15.103Z,30.94
2022-08-19T16:25:44.096Z,31.20
2022-08-19T16:28:16.766Z,31.22
2022-08-19T16:30:51.300Z,31.57
2022-08-19T16:33:22.913Z,31.51
2022-08-19T16:36:00.351Z,32.15
2022-08-19T16:38:40.087Z,33.24
2022-08-19T16:41:11.795Z,33.95
2022-08-19T16:43:46.724Z,34.10
2022-08-19T16:46:13.579Z,34.28
2022-08-19T16:48:45.991Z,35.67
2022-08-19T16:51:49.164Z,35.43
2022-08-19T16:54:17.811Z,36.98
2022-08-19T16:56:50.825Z,37.80
2022-08-19T16:59:24.702Z,38.76
2022-08-19T17:01:52.056Z,39.10
2022-08-19T17:04:18.925Z,39.77
2022-08-19T17:06:50.835Z,39.42
2022-08-19T17:09:37.948Z,40.21
2022-08-19T17:12:05.288Z,40.79
2022-08-19T17:14:32.194Z,41.04
2022-08-19T17:17:02.770Z,41.76
2022-08-19T17:19:42.546Z,41.96
2022-08-19T17:22:10.092Z,41.81
2022-08-19T17:24:42.985Z,42.28
2022-08-19T17:27:45.655Z,41.87
2022-08-19T17:30:17.398Z,42.39
2022-08-19T17:32:50.000Z,42.40
2022-08-19T17:35:24.119Z,43.07
2022-08-19T17:38:01.946Z,43.39
2022-08-19T17:40:35.709Z,43.07
2022-08-19T17:43:17.194Z,43.13
2022-08-19T17:46:11.064Z,44.64
2022-08-19T17:48:39.028Z,44.70
2022-08-19T17:51:22.017Z,45.43
2022-08-19T17:53:57.589Z,45.66
2022-08-19T17:56:32.104Z,46.47
2022-08-19T17:59:00.667Z,46.54
2022-08-19T18:01:43.846Z,47.09
2022-08-19T18:04:25.565Z,46.78
2022-08-19T18:06:54.745Z,46.16
2022-08-19T18:09:24.014Z,48.09
2022-08-19T18:11:56.931Z,48.24
2022-08-19T18:14:34.978Z,48.16
2022-08-19T18:17:08.635Z,48.83
2022-08-19T18:19:51.190Z,48.62
2022-08-19T18:22:30.866Z,49.21
2022-08-19T18:25:08.708Z,50.19
2022-08-19T18:27:35.798Z,50.04
2022-08-19T18:30:03.970Z,51.03
2022-08-19T18:32:38.008Z,52.65
2022-08-19T18:35:10.623Z,51.50
2022-08-19T18:37:45.708Z,51.65
2022-08-19T18:40:33.254Z,52.04
2022-08-19T18:43:16.296Z,52.27
2022-08-19T18:46:02.835Z,52.52
2022-08-19T18:48:50.442Z,51.44
2022-08-19T18:51:28.598Z,51.73
2022-08-19T18:54:02.086Z,51.78
2022-08-19T18:56:43.047Z,52.69
2022-08-19T18:59:15.622Z,53.12
2022-08-19T19:01:50.215Z,51.45
2022-08-19T19:04:18.811Z,52.33
2022-08-19T19:06:46.388Z,53.09
2022-08-19T19:09:22.790Z,53.52
2022-08-19T19:12:00.978Z,53.98
2022-08-19T19:14:48.752Z,54.47
2022-08-19T19:17:19.458Z,52.55
2022-08-19T19:19:47.598Z,55.59
2022-08-19T19:22:18.227Z,55.79
2022-08-19T19:24:48.432Z,55.56
2022-08-19T19:27:19.584Z,54.25
2022-08-19T19:29:52.224Z,56.34
2022-08-19T19:32:29.952Z,56.39
2022-08-19T19:34:57.023Z,56.41
2022-08-19T19:37:23.930Z,54.88
2022-08-19T19:39:52.131Z,55.13
2022-08-19T19:42:24.964Z,56.88
2022-08-19T19:44:54.767Z,56.67
2022-08-19T19:47:23.933Z,58.19
2022-08-19T19:50:14.663Z,58.39
2022-08-19T19:52:45.067Z,57.54
2022-08-19T19:55:17.516Z,58.34
2022-08-19T19:57:45.841Z,57.54
2022-08-19T20:00:16.800Z,56.95
2022-08-19T20:02:46.640Z,56.29
2022-08-19T20:05:18.851Z,55.55
2022-08-19T20:08:04.164Z,56.40
2022-08-19T20:10:39.423Z,57.35
2022-08-19T20:13:07.382Z,54.99
2022-08-19T20:15:37.900Z,54.58
2022-08-19T20:18:13.840Z,56.88
2022-08-19T20:20:46.415Z,54.93
2022-08-19T20:23:14.470Z,54.47
2022-08-19T20:25:48.766Z,53.87
2022-08-19T20:28:15.948Z,55.56
2022-08-19T20:30:48.109Z,54.15
2022-08-19T20:33:15.329Z,53.68
2022-08-19T20:35:44.589Z,54.98
2022-08-19T20:38:11.431Z,55.16
2022-08-19T20:40:40.664Z,55.00
2022-08-19T20:43:08.917Z,56.32
2022-08-19T20:45:36.634Z,55.73
2022-08-19T20:48:07.355Z,56.69
2022-08-19T20:50:35.287Z,55.42
2022-08-19T20:53:12.741Z,55.57
2022-08-19T20:55:42.134Z,55.87
2022-08-19T20:58:12.976Z,53.99
2022-08-19T21:00:40.810Z,54.24
2022-08-19T21:03:10.984Z,53.82
2022-08-19T21:05:41.059Z,53.61
2022-08-19T21:08:08.606Z,53.53
2022-08-19T21:10:42.232Z,52.95
2022-08-19T21:13:09.316Z,52.87
2022-08-19T21:15:42.963Z,53.98
2022-08-19T21:18:14.536Z,54.09
2022-08-19T21:20:41.658Z,54.03
2022-08-19T21:23:13.590Z,54.75
2022-08-19T21:25:40.628Z,54.33
2022-08-19T21:28:34.413Z,55.90
2022-08-19T21:31:10.934Z,54.82
2022-08-19T21:33:41.960Z,54.99
2022-08-19T21:36:10.461Z,54.34
2022-08-19T21:38:37.673Z,53.98
2022-08-19T21:41:08.000Z,54.41
2022-08-19T21:43:38.133Z,55.06
2022-08-19T21:46:11.420Z,55.33
2022-08-19T21:48:38.351Z,55.96
2022-08-19T21:51:05.430Z,55.57
2022-08-19T21:53:34.197Z,55.57
2022-08-19T21:56:08.358Z,55.67
2022-08-19T21:58:38.308Z,56.03
2022-08-19T22:01:11.698Z,57.34
2022-08-19T22:03:46.965Z,57.33
2022-08-19T22:06:15.864Z,58.30
2022-08-19T22:08:53.909Z,58.16
2022-08-19T22:11:25.030Z,56.39
2022-08-19T22:13:56.699Z,57.43
2022-08-19T22:16:24.162Z,58.52
2022-08-19T22:18:54.222Z,57.47
2022-08-19T22:21:39.833Z,55.95
2022-08-19T22:24:12.265Z,56.50
2022-08-19T22:27:03.712Z,54.41
2022-08-19T22:29:33.912Z,57.03
2022-08-19T22:32:27.052Z,59.25
2022-08-19T22:34:58.334Z,59.45
2022-08-19T22:37:30.082Z,59.53
2022-08-19T22:39:57.161Z,59.34
2022-08-19T22:42:24.889Z,58.88
2022-08-19T22:44:58.758Z,60.07
2022-08-19T22:47:27.159Z,59.86
2022-08-19T22:50:00.694Z,61.29
2022-08-19T22:52:31.259Z,62.00
2022-08-19T22:55:02.454Z,61.55
2022-08-19T22:57:33.546Z,61.11
2022-08-19T23:00:01.215Z,62.63
2022-08-19T23:02:32.793Z,60.25
2022-08-19T23:05:02.067Z,63.40
2022-08-19T23:07:29.143Z,62.16
2022-08-19T23:09:58.352Z,60.68
2022-08-19T23:12:32.806Z,60.95
2022-08-19T23:15:08.831Z,59.53
2022-08-19T23:17:36.436Z,60.78
2022-08-19T23:20:09.892Z,62.91
2022-08-19T23:22:41.313Z,61.58
2022-08-19T23:25:10.781Z,61.10
2022-08-19T23:27:56.222Z,61.56
2022-08-19T23:30:33.020Z,62.68
2022-08-19T23:33:04.680Z,64.02
2022-08-19T23:35:33.619Z,64.27
2022-08-19T23:38:00.759Z,65.52
2022-08-19T23:40:31.660Z,64.24
2022-08-19T23:42:58.435Z,63.18
2022-08-19T23:45:25.682Z,63.33
2022-08-19T23:47:53.303Z,66.51
2022-08-19T23:50:20.809Z,67.75
2022-08-19T23:52:58.640Z,66.27
2022-08-19T23:55:27.275Z,67.14
2022-08-19T23:57:58.115Z,68.35
